sensor_id;sensor_type;location;lat;lon;timestamp;temperature;humidity
61374;DHT22;47242;48.158;-1.586;2023-08-17T04:30:24;19.00;78.20
61374;DHT22;47242;48.158;-1.586;2023-08-17T04:32:50;19.00;78.20
61374;DHT22;47242;48.158;-1.586;2023-08-17T04:35:18;19.00;78.20
61374;DHT22;47242;48.158;-1.586;2023-08-17T04:37:44;19.00;78.40
61374;DHT22;47242;48.158;-1.586;2023-08-17T04:40:10;19.00;78.40
61374;DHT22;47242;48.158;-1.586;2023-08-17T04:42:36;18.90;78.50
61374;DHT22;47242;48.158;-1.586;2023-08-17T04:45:01;18.90;78.50
61374;DHT22;47242;48.158;-1.586;2023-08-17T04:47:27;19.00;78.40
61374;DHT22;47242;48.158;-1.586;2023-08-17T04:49:53;18.90;78.50
61374;DHT22;47242;48.158;-1.586;2023-08-17T04:52:18;19.00;78.40
61374;DHT22;47242;48.158;-1.586;2023-08-17T04:54:44;18.90;78.40
61374;DHT22;47242;48.158;-1.586;2023-08-17T04:57:10;18.90;78.60
61374;DHT22;47242;48.158;-1.586;2023-08-17T04:59:36;18.90;78.70
61374;DHT22;47242;48.158;-1.586;2023-08-17T05:02:01;18.80;78.70
61374;DHT22;47242;48.158;-1.586;2023-08-17T05:04:29;18.90;78.60
61374;DHT22;47242;48.158;-1.586;2023-08-17T05:06:55;18.80;78.60
61374;DHT22;47242;48.158;-1.586;2023-08-17T05:09:21;18.80;78.60
61374;DHT22;47242;48.158;-1.586;2023-08-17T05:11:46;18.80;78.50
61374;DHT22;47242;48.158;-1.586;2023-08-17T05:14:12;18.80;78.80
61374;DHT22;47242;48.158;-1.586;2023-08-17T05:16:38;18.80;78.90
61374;DHT22;47242;48.158;-1.586;2023-08-17T05:19:03;18.80;78.70
61374;DHT22;47242;48.158;-1.586;2023-08-17T05:21:29;18.90;78.90
61374;DHT22;47242;48.158;-1.586;2023-08-17T05:23:55;18.90;79.00
61374;DHT22;47242;48.158;-1.586;2023-08-17T05:26:21;18.90;78.70
61374;DHT22;47242;48.158;-1.586;2023-08-17T05:28:47;19.00;78.90
61374;DHT22;47242;48.158;-1.586;2023-08-17T05:31:12;19.00;78.60
61374;DHT22;47242;48.158;-1.586;2023-08-17T05:33:38;19.00;78.80
61374;DHT22;47242;48.158;-1.586;2023-08-17T05:36:06;19.00;78.80
61374;DHT22;47242;48.158;-1.586;2023-08-17T05:38:32;19.00;78.70
61374;DHT22;47242;48.158;-1.586;2023-08-17T05:40:58;19.10;78.80
61374;DHT22;47242;48.158;-1.586;2023-08-17T05:43:25;19.10;78.80
61374;DHT22;47242;48.158;-1.586;2023-08-17T05:45:51;19.10;78.70
61374;DHT22;47242;48.158;-1.586;2023-08-17T05:48:19;19.10;78.80
61374;DHT22;47242;48.158;-1.586;2023-08-17T05:50:45;19.10;78.90
61374;DHT22;47242;48.158;-1.586;2023-08-17T05:53:10;19.10;78.70
61374;DHT22;47242;48.158;-1.586;2023-08-17T05:55:36;19.20;78.90
61374;DHT22;47242;48.158;-1.586;2023-08-17T05:58:02;19.20;78.90
61374;DHT22;47242;48.158;-1.586;2023-08-17T06:00:29;19.10;79.00
61374;DHT22;47242;48.158;-1.586;2023-08-17T06:02:55;19.10;78.90
61374;DHT22;47242;48.158;-1.586;2023-08-17T06:05:29;19.10;79.10
61374;DHT22;47242;48.158;-1.586;2023-08-17T06:07:56;19.20;79.20
61374;DHT22;47242;48.158;-1.586;2023-08-17T06:10:23;19.20;79.20
61374;DHT22;47242;48.158;-1.586;2023-08-17T06:12:54;19.20;79.40
61374;DHT22;47242;48.158;-1.586;2023-08-17T06:15:21;19.20;79.40
61374;DHT22;47242;48.158;-1.586;2023-08-17T06:17:47;19.30;79.70
61374;DHT22;47242;48.158;-1.586;2023-08-17T06:20:15;19.30;79.90
61374;DHT22;47242;48.158;-1.586;2023-08-17T06:22:41;19.30;80.00
61374;DHT22;47242;48.158;-1.586;2023-08-17T06:25:07;19.40;80.10
61374;DHT22;47242;48.158;-1.586;2023-08-17T06:27:34;19.40;79.90
61374;DHT22;47242;48.158;-1.586;2023-08-17T06:30:00;19.50;80.10
61374;DHT22;47242;48.158;-1.586;2023-08-17T06:32:26;19.50;80.30
61374;DHT22;47242;48.158;-1.586;2023-08-17T06:34:51;19.60;80.30
61374;DHT22;47242;48.158;-1.586;2023-08-17T06:37:19;19.60;80.20
61374;DHT22;47242;48.158;-1.586;2023-08-17T06:39:45;19.70;80.40
61374;DHT22;47242;48.158;-1.586;2023-08-17T06:42:10;19.80;80.40
61374;DHT22;47242;48.158;-1.586;2023-08-17T06:44:36;19.80;80.50
61374;DHT22;47242;48.158;-1.586;2023-08-17T06:47:02;19.80;80.30
61374;DHT22;47242;48.158;-1.586;2023-08-17T06:49:27;19.90;80.00
61374;DHT22;47242;48.158;-1.586;2023-08-17T06:51:53;19.90;80.00
61374;DHT22;47242;48.158;-1.586;2023-08-17T06:54:19;19.90;80.20
61374;DHT22;47242;48.158;-1.586;2023-08-17T06:56:45;19.90;80.20
61374;DHT22;47242;48.158;-1.586;2023-08-17T06:59:11;20.00;80.20
61374;DHT22;47242;48.158;-1.586;2023-08-17T07:01:36;20.00;80.50
61374;DHT22;47242;48.158;-1.586;2023-08-17T07:04:02;20.10;80.40
61374;DHT22;47242;48.158;-1.586;2023-08-17T07:06:28;20.20;80.10
61374;DHT22;47242;48.158;-1.586;2023-08-17T07:08:54;20.30;80.00
61374;DHT22;47242;48.158;-1.586;2023-08-17T07:11:20;20.30;79.80
61374;DHT22;47242;48.158;-1.586;2023-08-17T07:13:46;20.40;79.70
61374;DHT22;47242;48.158;-1.586;2023-08-17T07:16:12;20.50;79.60
61374;DHT22;47242;48.158;-1.586;2023-08-17T07:18:38;20.60;79.40
61374;DHT22;47242;48.158;-1.586;2023-08-17T07:21:04;20.80;79.30
61374;DHT22;47242;48.158;-1.586;2023-08-17T07:23:29;20.90;79.00
61374;DHT22;47242;48.158;-1.586;2023-08-17T07:25:55;21.10;78.90
61374;DHT22;47242;48.158;-1.586;2023-08-17T07:28:21;21.20;78.10
61374;DHT22;47242;48.158;-1.586;2023-08-17T07:30:46;21.40;77.70
61374;DHT22;47242;48.158;-1.586;2023-08-17T07:33:12;21.50;77.60
61374;DHT22;47242;48.158;-1.586;2023-08-17T07:35:38;21.60;77.40
61374;DHT22;47242;48.158;-1.586;2023-08-17T07:38:03;21.70;77.10
61374;DHT22;47242;48.158;-1.586;2023-08-17T07:40:29;21.80;76.80
61374;DHT22;47242;48.158;-1.586;2023-08-17T07:42:55;21.90;76.70
61374;DHT22;47242;48.158;-1.586;2023-08-17T07:45:20;22.20;76.30
61374;DHT22;47242;48.158;-1.586;2023-08-17T07:47:46;22.30;76.10
61374;DHT22;47242;48.158;-1.586;2023-08-17T07:50:11;22.50;75.40
61374;DHT22;47242;48.158;-1.586;2023-08-17T07:52:37;23.00;74.80
61374;DHT22;47242;48.158;-1.586;2023-08-17T07:55:03;23.50;72.90
61374;DHT22;47242;48.158;-1.586;2023-08-17T07:57:28;23.70;72.40
61374;DHT22;47242;48.158;-1.586;2023-08-17T07:59:54;23.40;72.30
61374;DHT22;47242;48.158;-1.586;2023-08-17T08:02:20;24.10;71.90
61374;DHT22;47242;48.158;-1.586;2023-08-17T08:04:46;23.80;71.50
61374;DHT22;47242;48.158;-1.586;2023-08-17T08:07:11;23.60;71.80
61374;DHT22;47242;48.158;-1.586;2023-08-17T08:09:37;23.60;71.80
61374;DHT22;47242;48.158;-1.586;2023-08-17T08:12:03;23.80;71.30
61374;DHT22;47242;48.158;-1.586;2023-08-17T08:14:29;24.00;71.20
61374;DHT22;47242;48.158;-1.586;2023-08-17T08:16:55;24.20;71.00
61374;DHT22;47242;48.158;-1.586;2023-08-17T08:19:20;24.70;70.10
61374;DHT22;47242;48.158;-1.586;2023-08-17T08:21:46;24.40;69.60
61374;DHT22;47242;48.158;-1.586;2023-08-17T08:24:11;24.30;70.40
61374;DHT22;47242;48.158;-1.586;2023-08-17T08:26:37;25.80;67.50
61374;DHT22;47242;48.158;-1.586;2023-08-17T08:29:03;26.30;65.80
61374;DHT22;47242;48.158;-1.586;2023-08-17T08:31:28;26.70;64.50
61374;DHT22;47242;48.158;-1.586;2023-08-17T08:33:54;27.00;64.70
61374;DHT22;47242;48.158;-1.586;2023-08-17T08:36:20;27.20;63.80
61374;DHT22;47242;48.158;-1.586;2023-08-17T08:38:45;27.50;63.10
61374;DHT22;47242;48.158;-1.586;2023-08-17T08:41:12;27.80;63.00
61374;DHT22;47242;48.158;-1.586;2023-08-17T08:43:41;28.00;61.50
61374;DHT22;47242;48.158;-1.586;2023-08-17T08:46:07;28.30;59.60
61374;DHT22;47242;48.158;-1.586;2023-08-17T08:48:34;29.10;57.90
61374;DHT22;47242;48.158;-1.586;2023-08-17T08:51:01;30.20;55.90
61374;DHT22;47242;48.158;-1.586;2023-08-17T08:53:37;31.10;53.30
61374;DHT22;47242;48.158;-1.586;2023-08-17T08:56:04;31.90;51.40
61374;DHT22;47242;48.158;-1.586;2023-08-17T08:58:31;32.10;49.50
61374;DHT22;47242;48.158;-1.586;2023-08-17T09:00:58;32.00;50.00
61374;DHT22;47242;48.158;-1.586;2023-08-17T09:03:25;32.00;50.90
61374;DHT22;47242;48.158;-1.586;2023-08-17T09:05:52;31.50;52.20
61374;DHT22;47242;48.158;-1.586;2023-08-17T09:08:22;31.30;53.30
61374;DHT22;47242;48.158;-1.586;2023-08-17T09:10:48;31.00;53.60
61374;DHT22;47242;48.158;-1.586;2023-08-17T09:13:14;31.00;53.70
61374;DHT22;47242;48.158;-1.586;2023-08-17T09:15:41;30.90;54.10
61374;DHT22;47242;48.158;-1.586;2023-08-17T09:18:06;31.30;52.80
61374;DHT22;47242;48.158;-1.586;2023-08-17T09:20:43;31.40;52.90
61374;DHT22;47242;48.158;-1.586;2023-08-17T09:23:11;32.10;52.80
61374;DHT22;47242;48.158;-1.586;2023-08-17T09:25:43;32.40;51.90
61374;DHT22;47242;48.158;-1.586;2023-08-17T09:28:13;31.80;50.70
61374;DHT22;47242;48.158;-1.586;2023-08-17T09:30:53;31.10;53.00
61374;DHT22;47242;48.158;-1.586;2023-08-17T09:33:23;32.10;51.40
61374;DHT22;47242;48.158;-1.586;2023-08-17T09:35:54;32.50;50.50
61374;DHT22;47242;48.158;-1.586;2023-08-17T09:38:20;32.90;49.90
61374;DHT22;47242;48.158;-1.586;2023-08-17T09:40:48;32.70;49.90
61374;DHT22;47242;48.158;-1.586;2023-08-17T09:43:14;32.40;50.70
61374;DHT22;47242;48.158;-1.586;2023-08-17T09:45:41;32.30;52.40
61374;DHT22;47242;48.158;-1.586;2023-08-17T09:48:10;31.80;52.40
61374;DHT22;47242;48.158;-1.586;2023-08-17T09:50:36;31.00;54.60
61374;DHT22;47242;48.158;-1.586;2023-08-17T09:53:04;30.40;55.50
61374;DHT22;47242;48.158;-1.586;2023-08-17T09:55:30;29.90;57.20
61374;DHT22;47242;48.158;-1.586;2023-08-17T09:58:00;29.50;58.20
61374;DHT22;47242;48.158;-1.586;2023-08-17T10:00:27;29.30;59.20
61374;DHT22;47242;48.158;-1.586;2023-08-17T10:02:53;29.40;59.50
61374;DHT22;47242;48.158;-1.586;2023-08-17T10:05:20;29.60;59.90
61374;DHT22;47242;48.158;-1.586;2023-08-17T10:07:50;29.60;60.00
61374;DHT22;47242;48.158;-1.586;2023-08-17T10:10:24;29.50;59.60
61374;DHT22;47242;48.158;-1.586;2023-08-17T10:13:12;29.10;59.70
61374;DHT22;47242;48.158;-1.586;2023-08-17T10:16:33;29.30;60.00
61374;DHT22;47242;48.158;-1.586;2023-08-17T10:18:32;29.60;60.70
61374;DHT22;47242;48.158;-1.586;2023-08-17T10:21:09;30.40;57.90
61374;DHT22;47242;48.158;-1.586;2023-08-17T10:23:35;30.90;57.30
61374;DHT22;47242;48.158;-1.586;2023-08-17T10:26:02;31.20;55.50
61374;DHT22;47242;48.158;-1.586;2023-08-17T10:28:31;31.40;56.10
61374;DHT22;47242;48.158;-1.586;2023-08-17T10:30:57;31.70;55.00
61374;DHT22;47242;48.158;-1.586;2023-08-17T10:33:24;31.40;54.60
61374;DHT22;47242;48.158;-1.586;2023-08-17T10:35:51;31.30;56.10
61374;DHT22;47242;48.158;-1.586;2023-08-17T10:38:17;31.20;55.90
61374;DHT22;47242;48.158;-1.586;2023-08-17T10:40:43;30.80;56.10
61374;DHT22;47242;48.158;-1.586;2023-08-17T10:43:09;30.50;57.70
61374;DHT22;47242;48.158;-1.586;2023-08-17T10:45:35;30.10;57.40
61374;DHT22;47242;48.158;-1.586;2023-08-17T10:50:39;29.50;58.80
61374;DHT22;47242;48.158;-1.586;2023-08-17T10:53:08;29.70;58.70
61374;DHT22;47242;48.158;-1.586;2023-08-17T10:55:39;29.50;57.70
61374;DHT22;47242;48.158;-1.586;2023-08-17T10:58:08;29.40;58.00
61374;DHT22;47242;48.158;-1.586;2023-08-17T11:00:35;29.50;58.50
61374;DHT22;47242;48.158;-1.586;2023-08-17T11:03:10;29.60;57.40
61374;DHT22;47242;48.158;-1.586;2023-08-17T11:08:09;30.10;57.00
61374;DHT22;47242;48.158;-1.586;2023-08-17T11:10:36;29.90;56.60
61374;DHT22;47242;48.158;-1.586;2023-08-17T11:13:03;29.90;58.00
61374;DHT22;47242;48.158;-1.586;2023-08-17T11:18:09;29.80;57.90
61374;DHT22;47242;48.158;-1.586;2023-08-17T11:20:36;29.60;58.00
61374;DHT22;47242;48.158;-1.586;2023-08-17T11:23:03;29.70;57.40
61374;DHT22;47242;48.158;-1.586;2023-08-17T11:25:29;29.70;57.30
61374;DHT22;47242;48.158;-1.586;2023-08-17T11:27:55;29.90;59.10
61374;DHT22;47242;48.158;-1.586;2023-08-17T11:30:21;29.50;58.10
61374;DHT22;47242;48.158;-1.586;2023-08-17T11:32:51;29.50;58.30
61374;DHT22;47242;48.158;-1.586;2023-08-17T11:35:17;29.60;58.60
61374;DHT22;47242;48.158;-1.586;2023-08-17T11:37:43;29.60;58.50
61374;DHT22;47242;48.158;-1.586;2023-08-17T11:40:13;29.80;58.20
61374;DHT22;47242;48.158;-1.586;2023-08-17T11:42:39;29.70;57.30
61374;DHT22;47242;48.158;-1.586;2023-08-17T11:45:05;29.90;56.40
61374;DHT22;47242;48.158;-1.586;2023-08-17T11:47:35;29.90;57.10
61374;DHT22;47242;48.158;-1.586;2023-08-17T11:50:01;30.00;56.80
61374;DHT22;47242;48.158;-1.586;2023-08-17T11:52:29;30.00;57.00
61374;DHT22;47242;48.158;-1.586;2023-08-17T11:54:58;30.00;56.90
61374;DHT22;47242;48.158;-1.586;2023-08-17T11:57:23;29.70;56.50
61374;DHT22;47242;48.158;-1.586;2023-08-17T11:59:55;29.60;57.60
61374;DHT22;47242;48.158;-1.586;2023-08-17T12:02:22;29.70;58.70
61374;DHT22;47242;48.158;-1.586;2023-08-17T12:04:49;29.80;58.00
61374;DHT22;47242;48.158;-1.586;2023-08-17T12:07:15;30.00;57.00
61374;DHT22;47242;48.158;-1.586;2023-08-17T12:09:43;30.30;58.00
61374;DHT22;47242;48.158;-1.586;2023-08-17T12:12:09;30.50;55.30
61374;DHT22;47242;48.158;-1.586;2023-08-17T12:14:36;30.50;55.90
61374;DHT22;47242;48.158;-1.586;2023-08-17T12:17:02;30.30;56.60
61374;DHT22;47242;48.158;-1.586;2023-08-17T12:19:29;30.00;56.70
61374;DHT22;47242;48.158;-1.586;2023-08-17T12:21:56;29.70;56.70
61374;DHT22;47242;48.158;-1.586;2023-08-17T12:24:24;29.40;58.40
61374;DHT22;47242;48.158;-1.586;2023-08-17T12:26:50;29.40;58.00
61374;DHT22;47242;48.158;-1.586;2023-08-17T12:29:15;29.80;57.80
61374;DHT22;47242;48.158;-1.586;2023-08-17T12:31:41;29.90;58.60
61374;DHT22;47242;48.158;-1.586;2023-08-17T12:34:07;30.10;57.00
61374;DHT22;47242;48.158;-1.586;2023-08-17T12:36:34;30.10;56.90
61374;DHT22;47242;48.158;-1.586;2023-08-17T12:39:00;29.90;56.80
61374;DHT22;47242;48.158;-1.586;2023-08-17T12:41:26;29.70;57.10
61374;DHT22;47242;48.158;-1.586;2023-08-17T12:43:52;29.50;56.60
61374;DHT22;47242;48.158;-1.586;2023-08-17T12:46:24;29.80;57.60
61374;DHT22;47242;48.158;-1.586;2023-08-17T12:48:49;30.10;54.60
61374;DHT22;47242;48.158;-1.586;2023-08-17T12:51:15;30.20;55.80
61374;DHT22;47242;48.158;-1.586;2023-08-17T12:53:41;30.10;55.10
61374;DHT22;47242;48.158;-1.586;2023-08-17T12:56:07;29.80;54.80
61374;DHT22;47242;48.158;-1.586;2023-08-17T12:58:33;29.60;54.80
61374;DHT22;47242;48.158;-1.586;2023-08-17T13:00:59;29.40;55.80
61374;DHT22;47242;48.158;-1.586;2023-08-17T13:03:24;29.50;56.00
61374;DHT22;47242;48.158;-1.586;2023-08-17T13:05:50;30.00;56.40
61374;DHT22;47242;48.158;-1.586;2023-08-17T13:08:16;30.00;55.20
61374;DHT22;47242;48.158;-1.586;2023-08-17T13:10:41;30.10;55.70
61374;DHT22;47242;48.158;-1.586;2023-08-17T13:13:07;30.10;54.80
61374;DHT22;47242;48.158;-1.586;2023-08-17T13:15:33;30.10;55.00
61374;DHT22;47242;48.158;-1.586;2023-08-17T13:17:59;30.10;54.50
61374;DHT22;47242;48.158;-1.586;2023-08-17T13:20:25;30.00;55.90
61374;DHT22;47242;48.158;-1.586;2023-08-17T13:22:50;30.20;55.40
61374;DHT22;47242;48.158;-1.586;2023-08-17T13:25:16;30.30;55.10
61374;DHT22;47242;48.158;-1.586;2023-08-17T13:27:42;30.00;54.90
61374;DHT22;47242;48.158;-1.586;2023-08-17T13:30:08;29.80;55.20
61374;DHT22;47242;48.158;-1.586;2023-08-17T13:32:34;29.90;54.90
61374;DHT22;47242;48.158;-1.586;2023-08-17T13:35:01;30.00;54.50
61374;DHT22;47242;48.158;-1.586;2023-08-17T13:37:27;30.10;55.50
61374;DHT22;47242;48.158;-1.586;2023-08-17T13:39:53;30.20;54.90
61374;DHT22;47242;48.158;-1.586;2023-08-17T13:42:19;30.30;54.90
61374;DHT22;47242;48.158;-1.586;2023-08-17T13:44:45;30.30;55.70
61374;DHT22;47242;48.158;-1.586;2023-08-17T13:47:11;30.40;56.10
61374;DHT22;47242;48.158;-1.586;2023-08-17T13:49:37;30.10;56.10
61374;DHT22;47242;48.158;-1.586;2023-08-17T13:52:03;29.90;56.30
61374;DHT22;47242;48.158;-1.586;2023-08-17T13:54:29;29.80;56.30
61374;DHT22;47242;48.158;-1.586;2023-08-17T13:56:55;29.90;56.10
61374;DHT22;47242;48.158;-1.586;2023-08-17T13:59:20;30.00;55.50
61374;DHT22;47242;48.158;-1.586;2023-08-17T14:01:46;30.00;55.50
61374;DHT22;47242;48.158;-1.586;2023-08-17T14:04:11;30.20;57.00
61374;DHT22;47242;48.158;-1.586;2023-08-17T14:06:38;30.20;56.70
61374;DHT22;47242;48.158;-1.586;2023-08-17T14:09:04;30.30;56.50
61374;DHT22;47242;48.158;-1.586;2023-08-17T14:11:30;30.30;55.40
61374;DHT22;47242;48.158;-1.586;2023-08-17T14:13:56;30.30;57.40
61374;DHT22;47242;48.158;-1.586;2023-08-17T14:16:21;30.40;56.10
61374;DHT22;47242;48.158;-1.586;2023-08-17T14:18:47;30.50;56.30
61374;DHT22;47242;48.158;-1.586;2023-08-17T14:21:12;30.50;56.10
61374;DHT22;47242;48.158;-1.586;2023-08-17T14:23:38;30.60;56.20
61374;DHT22;47242;48.158;-1.586;2023-08-17T14:26:04;30.60;55.80
61374;DHT22;47242;48.158;-1.586;2023-08-17T14:28:30;30.30;55.90
61374;DHT22;47242;48.158;-1.586;2023-08-17T14:30:56;30.10;56.40
61374;DHT22;47242;48.158;-1.586;2023-08-17T14:33:21;29.80;56.80
61374;DHT22;47242;48.158;-1.586;2023-08-17T14:35:47;29.80;58.00
61374;DHT22;47242;48.158;-1.586;2023-08-17T14:38:13;29.70;57.20
61374;DHT22;47242;48.158;-1.586;2023-08-17T14:40:43;29.70;57.80
61374;DHT22;47242;48.158;-1.586;2023-08-17T14:43:10;29.60;59.00
61374;DHT22;47242;48.158;-1.586;2023-08-17T14:45:37;29.60;58.70
61374;DHT22;47242;48.158;-1.586;2023-08-17T14:48:03;29.70;58.20
61374;DHT22;47242;48.158;-1.586;2023-08-17T14:50:28;29.60;58.80
61374;DHT22;47242;48.158;-1.586;2023-08-17T14:52:54;29.70;59.80
61374;DHT22;47242;48.158;-1.586;2023-08-17T14:55:20;29.70;59.00
61374;DHT22;47242;48.158;-1.586;2023-08-17T14:57:45;29.70;59.70
61374;DHT22;47242;48.158;-1.586;2023-08-17T15:00:11;29.60;58.00
61374;DHT22;47242;48.158;-1.586;2023-08-17T15:02:37;29.80;58.00
61374;DHT22;47242;48.158;-1.586;2023-08-17T15:05:03;29.80;58.10
61374;DHT22;47242;48.158;-1.586;2023-08-17T15:07:28;30.00;56.30
61374;DHT22;47242;48.158;-1.586;2023-08-17T15:09:54;29.80;56.10
61374;DHT22;47242;48.158;-1.586;2023-08-17T15:12:20;29.80;56.80
61374;DHT22;47242;48.158;-1.586;2023-08-17T15:14:45;29.60;57.30
61374;DHT22;47242;48.158;-1.586;2023-08-17T15:17:11;29.50;57.20
61374;DHT22;47242;48.158;-1.586;2023-08-17T15:19:38;29.30;58.00
61374;DHT22;47242;48.158;-1.586;2023-08-17T15:22:03;29.30;58.00
61374;DHT22;47242;48.158;-1.586;2023-08-17T15:24:29;29.30;57.80
61374;DHT22;47242;48.158;-1.586;2023-08-17T15:26:55;29.20;58.10
61374;DHT22;47242;48.158;-1.586;2023-08-17T15:29:20;29.20;58.20
61374;DHT22;47242;48.158;-1.586;2023-08-17T15:31:46;29.20;58.00
61374;DHT22;47242;48.158;-1.586;2023-08-17T15:34:11;29.20;57.80
61374;DHT22;47242;48.158;-1.586;2023-08-17T15:36:37;29.30;58.30
61374;DHT22;47242;48.158;-1.586;2023-08-17T15:39:03;29.60;57.90
61374;DHT22;47242;48.158;-1.586;2023-08-17T15:41:29;29.80;58.00
61374;DHT22;47242;48.158;-1.586;2023-08-17T15:43:54;30.10;56.50
61374;DHT22;47242;48.158;-1.586;2023-08-17T15:46:20;30.00;56.80
61374;DHT22;47242;48.158;-1.586;2023-08-17T15:48:45;29.80;57.80
61374;DHT22;47242;48.158;-1.586;2023-08-17T15:51:11;29.60;58.30
61374;DHT22;47242;48.158;-1.586;2023-08-17T15:53:37;29.50;59.00
61374;DHT22;47242;48.158;-1.586;2023-08-17T15:56:04;29.50;59.00
61374;DHT22;47242;48.158;-1.586;2023-08-17T15:58:30;29.80;58.40
61374;DHT22;47242;48.158;-1.586;2023-08-17T16:00:56;29.90;57.80
61374;DHT22;47242;48.158;-1.586;2023-08-17T16:03:21;30.00;57.20
61374;DHT22;47242;48.158;-1.586;2023-08-17T16:05:47;30.00;56.90
61374;DHT22;47242;48.158;-1.586;2023-08-17T16:08:13;30.00;55.00
61374;DHT22;47242;48.158;-1.586;2023-08-17T16:10:39;30.00;54.90
61374;DHT22;47242;48.158;-1.586;2023-08-17T16:13:04;30.00;56.10
61374;DHT22;47242;48.158;-1.586;2023-08-17T16:15:30;30.00;56.00
61374;DHT22;47242;48.158;-1.586;2023-08-17T16:17:56;30.00;55.40
61374;DHT22;47242;48.158;-1.586;2023-08-17T16:20:21;30.10;55.90
61374;DHT22;47242;48.158;-1.586;2023-08-17T16:22:47;29.90;55.80
61374;DHT22;47242;48.158;-1.586;2023-08-17T16:25:13;29.70;56.40
61374;DHT22;47242;48.158;-1.586;2023-08-17T16:27:38;29.50;56.90
61374;DHT22;47242;48.158;-1.586;2023-08-17T16:30:05;29.50;58.20
61374;DHT22;47242;48.158;-1.586;2023-08-17T16:32:31;29.50;57.60
61374;DHT22;47242;48.158;-1.586;2023-08-17T16:34:57;29.70;56.80
61374;DHT22;47242;48.158;-1.586;2023-08-17T16:37:23;29.60;57.20
61374;DHT22;47242;48.158;-1.586;2023-08-17T16:39:49;29.50;57.30
61374;DHT22;47242;48.158;-1.586;2023-08-17T16:42:14;29.40;58.30
61374;DHT22;47242;48.158;-1.586;2023-08-17T16:44:40;29.30;58.80
61374;DHT22;47242;48.158;-1.586;2023-08-17T16:47:05;29.20;58.70
61374;DHT22;47242;48.158;-1.586;2023-08-17T16:49:31;29.00;59.20
61374;DHT22;47242;48.158;-1.586;2023-08-17T16:51:58;28.80;58.70
61374;DHT22;47242;48.158;-1.586;2023-08-17T16:54:24;28.70;59.30
61374;DHT22;47242;48.158;-1.586;2023-08-17T16:56:50;28.70;58.60
61374;DHT22;47242;48.158;-1.586;2023-08-17T16:59:15;28.50;59.40
61374;DHT22;47242;48.158;-1.586;2023-08-17T17:01:41;28.60;59.80
61374;DHT22;47242;48.158;-1.586;2023-08-17T17:04:06;28.50;60.00
61374;DHT22;47242;48.158;-1.586;2023-08-17T17:06:32;28.50;59.90
61374;DHT22;47242;48.158;-1.586;2023-08-17T17:08:58;28.40;60.10
61374;DHT22;47242;48.158;-1.586;2023-08-17T17:11:23;28.40;61.00
61374;DHT22;47242;48.158;-1.586;2023-08-17T17:13:49;28.40;61.60
61374;DHT22;47242;48.158;-1.586;2023-08-17T17:16:15;28.30;61.60
61374;DHT22;47242;48.158;-1.586;2023-08-17T17:18:40;28.30;61.60
61374;DHT22;47242;48.158;-1.586;2023-08-17T17:21:06;28.40;61.60
61374;DHT22;47242;48.158;-1.586;2023-08-17T17:23:32;28.40;61.70
61374;DHT22;47242;48.158;-1.586;2023-08-17T17:25:58;28.50;61.30
61374;DHT22;47242;48.158;-1.586;2023-08-17T17:28:23;28.50;60.60
61374;DHT22;47242;48.158;-1.586;2023-08-17T17:30:49;28.50;61.00
61374;DHT22;47242;48.158;-1.586;2023-08-17T17:33:14;28.50;61.30
61374;DHT22;47242;48.158;-1.586;2023-08-17T17:35:40;28.40;61.30
61374;DHT22;47242;48.158;-1.586;2023-08-17T17:38:05;28.40;62.00
61374;DHT22;47242;48.158;-1.586;2023-08-17T17:40:32;28.40;62.00
61374;DHT22;47242;48.158;-1.586;2023-08-17T17:42:57;28.30;62.80
61374;DHT22;47242;48.158;-1.586;2023-08-17T17:45:24;28.30;62.20
61374;DHT22;47242;48.158;-1.586;2023-08-17T17:47:50;28.30;62.20
61374;DHT22;47242;48.158;-1.586;2023-08-17T17:50:15;28.20;63.00
61374;DHT22;47242;48.158;-1.586;2023-08-17T17:52:41;28.20;63.20
61374;DHT22;47242;48.158;-1.586;2023-08-17T17:55:07;28.10;63.60
61374;DHT22;47242;48.158;-1.586;2023-08-17T17:57:32;28.10;63.50
61374;DHT22;47242;48.158;-1.586;2023-08-17T17:59:58;28.00;63.70
61374;DHT22;47242;48.158;-1.586;2023-08-17T18:02:25;28.00;64.20
61374;DHT22;47242;48.158;-1.586;2023-08-17T18:04:51;28.00;64.10
61374;DHT22;47242;48.158;-1.586;2023-08-17T18:07:19;27.90;64.30
61374;DHT22;47242;48.158;-1.586;2023-08-17T18:09:45;27.90;64.30
61374;DHT22;47242;48.158;-1.586;2023-08-17T18:12:10;27.90;64.30
61374;DHT22;47242;48.158;-1.586;2023-08-17T18:14:37;27.90;64.60
61374;DHT22;47242;48.158;-1.586;2023-08-17T18:17:03;27.90;64.50
61374;DHT22;47242;48.158;-1.586;2023-08-17T18:19:29;27.80;64.80
61374;DHT22;47242;48.158;-1.586;2023-08-17T18:21:54;27.80;65.40
61374;DHT22;47242;48.158;-1.586;2023-08-17T18:24:20;27.70;65.40
61374;DHT22;47242;48.158;-1.586;2023-08-17T18:26:45;27.60;65.60
61374;DHT22;47242;48.158;-1.586;2023-08-17T18:29:11;27.60;65.80
61374;DHT22;47242;48.158;-1.586;2023-08-17T18:31:38;27.60;66.60
61374;DHT22;47242;48.158;-1.586;2023-08-17T18:34:06;27.50;66.40
61374;DHT22;47242;48.158;-1.586;2023-08-17T18:36:32;27.40;66.60
61374;DHT22;47242;48.158;-1.586;2023-08-17T18:38:59;27.40;66.90
61374;DHT22;47242;48.158;-1.586;2023-08-17T18:41:25;27.40;66.10
61374;DHT22;47242;48.158;-1.586;2023-08-17T18:43:51;27.30;66.00
61374;DHT22;47242;48.158;-1.586;2023-08-17T18:46:16;27.30;66.00
61374;DHT22;47242;48.158;-1.586;2023-08-17T18:48:42;27.20;66.00
61374;DHT22;47242;48.158;-1.586;2023-08-17T18:51:07;27.20;66.20
61374;DHT22;47242;48.158;-1.586;2023-08-17T18:53:33;27.10;66.70
61374;DHT22;47242;48.158;-1.586;2023-08-17T18:55:59;27.10;67.10
61374;DHT22;47242;48.158;-1.586;2023-08-17T18:58:24;27.00;67.40
61374;DHT22;47242;48.158;-1.586;2023-08-17T19:00:51;26.90;67.30
61374;DHT22;47242;48.158;-1.586;2023-08-17T19:03:17;26.80;67.30
61374;DHT22;47242;48.158;-1.586;2023-08-17T19:05:42;26.80;67.60
61374;DHT22;47242;48.158;-1.586;2023-08-17T19:08:08;26.70;67.90
61374;DHT22;47242;48.158;-1.586;2023-08-17T19:10:33;26.60;68.00
61374;DHT22;47242;48.158;-1.586;2023-08-17T19:12:59;26.50;68.00
61374;DHT22;47242;48.158;-1.586;2023-08-17T19:15:25;26.50;67.90
61374;DHT22;47242;48.158;-1.586;2023-08-17T19:17:50;26.40;67.80
61374;DHT22;47242;48.158;-1.586;2023-08-17T19:20:16;26.40;67.60
61374;DHT22;47242;48.158;-1.586;2023-08-17T19:22:42;26.30;67.50
61374;DHT22;47242;48.158;-1.586;2023-08-17T19:25:09;26.30;67.60
61374;DHT22;47242;48.158;-1.586;2023-08-17T19:27:35;26.30;67.50
61374;DHT22;47242;48.158;-1.586;2023-08-17T19:30:01;26.30;67.50
61374;DHT22;47242;48.158;-1.586;2023-08-17T19:32:27;26.30;67.20
61374;DHT22;47242;48.158;-1.586;2023-08-17T19:34:52;26.20;67.10
61374;DHT22;47242;48.158;-1.586;2023-08-17T19:37:18;26.20;67.00
61374;DHT22;47242;48.158;-1.586;2023-08-17T19:39:44;26.20;67.20
61374;DHT22;47242;48.158;-1.586;2023-08-17T19:42:09;26.20;67.20
61374;DHT22;47242;48.158;-1.586;2023-08-17T19:44:35;26.10;67.50
61374;DHT22;47242;48.158;-1.586;2023-08-17T19:47:00;26.00;67.70